Time;durP1;ratioP1;P1;durP2;ratioP2;P2;SDS_P1;SDS_P2;PMS_P1;PMS_P2;Temp;Humidity;BMP_temperature;BMP_pressure;BME280_temperature;BME280_humidity;BME280_pressure;Samples;Min_cycle;Max_cycle;Signal;HPM_P1;HPM_P2
2023/06/18 00:00:56;;;;;;;12.10;8.75;;;;;;;;;;5054755;28;20182;-86
2023/06/18 00:03:22;;;;;;;10.23;7.95;;;;;;;;;;5055071;28;20179;-85
2023/06/18 00:05:48;;;;;;;12.63;8.50;;;;;;;;;;5055362;28;20184;-86
2023/06/18 00:08:14;;;;;;;10.23;8.00;;;;;;;;;;5038039;28;20242;-85
2023/06/18 00:10:40;;;;;;;10.75;9.07;;;;;;;;;;5055200;28;20233;-86
2023/06/18 00:13:06;;;;;;;11.50;8.65;;;;;;;;;;5034688;28;20188;-85
2023/06/18 00:15:32;;;;;;;12.35;8.25;;;;;;;;;;5035238;28;20200;-85
2023/06/18 00:17:58;;;;;;;9.70;8.70;;;;;;;;;;5054513;28;20193;-85
2023/06/18 00:20:24;;;;;;;11.50;8.38;;;;;;;;;;5054766;28;20268;-85
2023/06/18 00:22:52;;;;;;;10.82;8.15;;;;;;;;;;5037800;28;20192;-86
2023/06/18 00:25:19;;;;;;;10.23;7.68;;;;;;;;;;5054949;28;20180;-85
2023/06/18 00:27:45;;;;;;;11.95;8.43;;;;;;;;;;5026220;28;20185;-86
2023/06/18 00:30:11;;;;;;;11.05;8.05;;;;;;;;;;5018401;28;20177;-86
2023/06/18 00:32:37;;;;;;;12.15;8.23;;;;;;;;;;5030616;28;20187;-85
2023/06/18 00:35:04;;;;;;;8.98;7.70;;;;;;;;;;5038243;28;20191;-82
2023/06/18 00:37:30;;;;;;;10.68;8.10;;;;;;;;;;5038027;28;20203;-81
2023/06/18 00:39:56;;;;;;;9.95;7.93;;;;;;;;;;5053838;28;20227;-81
2023/06/18 00:42:22;;;;;;;8.48;7.65;;;;;;;;;;5053836;28;20195;-82
2023/06/18 00:44:48;;;;;;;9.27;8.20;;;;;;;;;;5054648;28;20175;-82
2023/06/18 00:47:14;;;;;;;13.05;8.13;;;;;;;;;;5055549;28;20246;-81
2023/06/18 00:49:44;;;;;;;8.23;7.43;;;;;;;;;;5055202;28;20179;-81
2023/06/18 00:52:14;;;;;;;8.85;8.00;;;;;;;;;;5053801;28;20247;-80
2023/06/18 00:54:44;;;;;;;10.02;7.57;;;;;;;;;;5053733;28;20184;-80
2023/06/18 00:57:13;;;;;;;9.95;7.40;;;;;;;;;;5055328;28;20256;-80
2023/06/18 00:59:42;;;;;;;8.45;7.65;;;;;;;;;;5033392;28;20228;-80
2023/06/18 01:02:08;;;;;;;10.02;7.90;;;;;;;;;;5053069;28;20180;-80
2023/06/18 01:04:35;;;;;;;10.57;7.53;;;;;;;;;;5054060;28;20207;-80
2023/06/18 01:07:02;;;;;;;10.18;7.80;;;;;;;;;;5037493;28;20270;-81
2023/06/18 01:09:29;;;;;;;9.80;7.78;;;;;;;;;;5054236;28;20179;-82
2023/06/18 01:11:55;;;;;;;9.63;7.80;;;;;;;;;;5036617;28;20191;-81
2023/06/18 01:14:22;;;;;;;10.07;7.40;;;;;;;;;;5054003;28;20188;-81
2023/06/18 01:16:53;;;;;;;11.38;7.75;;;;;;;;;;5055127;28;20179;-81
2023/06/18 01:19:40;;;;;;;8.23;7.43;;;;;;;;;;5053923;28;20208;-81
2023/06/18 01:22:15;;;;;;;12.55;7.40;;;;;;;;;;5054504;28;20180;-82
2023/06/18 01:24:48;;;;;;;11.88;7.55;;;;;;;;;;5053631;28;20176;-78
2023/06/18 01:27:16;;;;;;;10.38;7.90;;;;;;;;;;5053879;28;20183;-79
2023/06/18 01:29:42;;;;;;;9.27;7.63;;;;;;;;;;5053225;28;20275;-78
2023/06/18 01:32:08;;;;;;;11.02;7.75;;;;;;;;;;5049606;28;20188;-78
2023/06/18 01:34:38;;;;;;;9.85;7.38;;;;;;;;;;5033311;28;20192;-78
2023/06/18 01:37:09;;;;;;;8.25;6.90;;;;;;;;;;5033542;28;20188;-78
2023/06/18 01:39:55;;;;;;;9.30;7.50;;;;;;;;;;5049449;28;20196;-78
2023/06/18 01:42:23;;;;;;;8.13;7.28;;;;;;;;;;5041373;28;20184;-85
2023/06/18 01:44:52;;;;;;;8.75;7.15;;;;;;;;;;5041342;28;20177;-85
2023/06/18 01:47:20;;;;;;;8.40;6.72;;;;;;;;;;5040405;28;20248;-86
2023/06/18 01:49:46;;;;;;;8.80;6.90;;;;;;;;;;5039156;28;20186;-86
2023/06/18 01:52:15;;;;;;;9.10;7.20;;;;;;;;;;5053626;28;20330;-85
2023/06/18 01:54:43;;;;;;;9.48;6.85;;;;;;;;;;5044554;28;20183;-85
2023/06/18 01:57:09;;;;;;;7.65;6.90;;;;;;;;;;5044200;28;20183;-78
2023/06/18 01:59:35;;;;;;;8.60;7.10;;;;;;;;;;5050455;28;20224;-79
2023/06/18 02:02:01;;;;;;;8.43;7.10;;;;;;;;;;5025337;28;20216;-78
2023/06/18 02:04:27;;;;;;;9.63;7.00;;;;;;;;;;5027458;28;20192;-78
2023/06/18 02:06:54;;;;;;;10.35;7.18;;;;;;;;;;5041959;28;20214;-78
2023/06/18 02:09:20;;;;;;;8.05;6.80;;;;;;;;;;5025705;28;20180;-78
2023/06/18 02:11:46;;;;;;;10.30;7.20;;;;;;;;;;5057470;28;20275;-78
2023/06/18 02:14:12;;;;;;;8.55;7.57;;;;;;;;;;5027933;28;20195;-81
2023/06/18 02:16:38;;;;;;;8.70;7.03;;;;;;;;;;5043624;28;20180;-81
2023/06/18 02:19:06;;;;;;;8.45;7.50;;;;;;;;;;5043108;28;20196;-81
2023/06/18 02:21:45;;;;;;;10.57;7.23;;;;;;;;;;5086445;27;1338156;-81
2023/06/18 02:24:11;;;;;;;10.38;7.40;;;;;;;;;;5100894;28;20174;-81
2023/06/18 02:26:37;;;;;;;7.87;7.07;;;;;;;;;;5082109;28;20219;-81
2023/06/18 02:29:03;;;;;;;12.93;7.03;;;;;;;;;;5098575;28;20243;-81
2023/06/18 02:31:29;;;;;;;8.87;7.40;;;;;;;;;;5081163;28;20175;-81
2023/06/18 02:33:55;;;;;;;9.47;7.53;;;;;;;;;;5099240;28;20178;-81
2023/06/18 02:36:22;;;;;;;8.67;7.77;;;;;;;;;;5101470;28;20224;-81
2023/06/18 02:38:48;;;;;;;7.80;7.10;;;;;;;;;;5093237;28;20187;-82
2023/06/18 02:41:14;;;;;;;9.77;7.37;;;;;;;;;;5073019;28;20206;-81
2023/06/18 02:43:40;;;;;;;10.00;7.87;;;;;;;;;;5088791;28;20240;-81
2023/06/18 02:46:06;;;;;;;13.57;7.70;;;;;;;;;;5072996;28;20183;-81
2023/06/18 02:48:32;;;;;;;9.73;7.93;;;;;;;;;;5073069;28;20179;-81
2023/06/18 02:50:58;;;;;;;10.10;7.93;;;;;;;;;;5090085;28;20174;-81
2023/06/18 02:53:24;;;;;;;8.90;8.00;;;;;;;;;;5089086;28;20186;-81
2023/06/18 02:55:50;;;;;;;9.27;7.67;;;;;;;;;;5089500;28;20221;-81
2023/06/18 02:58:17;;;;;;;8.47;7.30;;;;;;;;;;5069201;28;20229;-82
2023/06/18 03:00:44;;;;;;;10.77;8.10;;;;;;;;;;5069449;28;20360;-81
2023/06/18 03:03:11;;;;;;;10.43;7.63;;;;;;;;;;5068328;28;20172;-82
2023/06/18 03:05:37;;;;;;;8.40;7.60;;;;;;;;;;5067047;28;20190;-82
2023/06/18 03:08:03;;;;;;;13.03;8.00;;;;;;;;;;5072415;28;20183;-81
2023/06/18 03:10:29;;;;;;;10.13;7.67;;;;;;;;;;5089297;28;20182;-81
2023/06/18 03:12:55;;;;;;;9.73;7.57;;;;;;;;;;5072691;28;20182;-81
2023/06/18 03:15:21;;;;;;;11.63;8.33;;;;;;;;;;5068505;28;20192;-81
2023/06/18 03:17:47;;;;;;;10.83;8.00;;;;;;;;;;5069267;28;20270;-81
2023/06/18 03:20:13;;;;;;;8.53;7.63;;;;;;;;;;5068691;28;20219;-81
2023/06/18 03:22:39;;;;;;;8.90;7.93;;;;;;;;;;5068774;28;20227;-81
2023/06/18 03:25:06;;;;;;;12.07;8.20;;;;;;;;;;5072051;28;20193;-81
2023/06/18 03:27:32;;;;;;;10.47;8.70;;;;;;;;;;5072394;28;20195;-81
2023/06/18 03:29:58;;;;;;;10.93;7.67;;;;;;;;;;5072130;28;20194;-82
2023/06/18 03:32:24;;;;;;;10.30;8.33;;;;;;;;;;5062681;28;20186;-81
2023/06/18 03:34:51;;;;;;;10.70;8.13;;;;;;;;;;5052405;28;20187;-82
2023/06/18 03:37:17;;;;;;;10.97;8.40;;;;;;;;;;5072028;28;20254;-81
2023/06/18 03:39:43;;;;;;;11.13;8.60;;;;;;;;;;5055406;28;20306;-81
2023/06/18 03:42:10;;;;;;;11.80;8.20;;;;;;;;;;5058624;28;20179;-81
2023/06/18 03:44:36;;;;;;;9.50;8.23;;;;;;;;;;5054356;28;20215;-81
2023/06/18 03:47:02;;;;;;;9.60;8.60;;;;;;;;;;5072253;28;20206;-81
2023/06/18 03:49:28;;;;;;;12.07;8.97;;;;;;;;;;5055199;28;20188;-81
2023/06/18 03:51:54;;;;;;;9.80;8.80;;;;;;;;;;5059060;28;20270;-81
2023/06/18 03:54:20;;;;;;;10.67;9.50;;;;;;;;;;5057757;28;20175;-82
2023/06/18 03:56:46;;;;;;;11.60;9.37;;;;;;;;;;5074970;28;20172;-81
2023/06/18 03:59:12;;;;;;;10.93;8.97;;;;;;;;;;5075037;28;20217;-81
2023/06/18 04:01:38;;;;;;;11.70;9.20;;;;;;;;;;5058240;28;20215;-82
2023/06/18 04:04:04;;;;;;;11.60;9.00;;;;;;;;;;5058361;28;20205;-82
2023/06/18 04:06:30;;;;;;;11.47;9.50;;;;;;;;;;5055935;28;20190;-81
2023/06/18 04:08:56;;;;;;;9.77;8.40;;;;;;;;;;5057718;28;20188;-81
2023/06/18 04:11:22;;;;;;;10.10;8.93;;;;;;;;;;5054241;28;20192;-82
2023/06/18 04:13:48;;;;;;;10.30;9.30;;;;;;;;;;5071411;28;20249;-82
2023/06/18 04:16:14;;;;;;;10.33;9.10;;;;;;;;;;5054860;28;20205;-81
2023/06/18 04:18:40;;;;;;;11.33;8.77;;;;;;;;;;5054715;28;20211;-81
2023/06/18 04:21:06;;;;;;;12.60;9.60;;;;;;;;;;5056779;28;20274;-81
2023/06/18 04:23:32;;;;;;;10.77;9.70;;;;;;;;;;5073972;28;20250;-81
2023/06/18 04:25:58;;;;;;;11.93;9.70;;;;;;;;;;5053477;28;20191;-82
2023/06/18 04:28:24;;;;;;;11.93;9.57;;;;;;;;;;5057691;28;20183;-81
2023/06/18 04:30:50;;;;;;;13.37;10.37;;;;;;;;;;5072507;28;20214;-81
2023/06/18 04:33:17;;;;;;;11.53;10.00;;;;;;;;;;5056936;28;20286;-81
2023/06/18 04:35:44;;;;;;;11.83;9.13;;;;;;;;;;5073192;28;20191;-81
2023/06/18 04:38:11;;;;;;;10.20;9.20;;;;;;;;;;5060430;28;20228;-81
2023/06/18 04:40:37;;;;;;;12.97;10.50;;;;;;;;;;5068472;28;20238;-81
2023/06/18 04:43:03;;;;;;;11.03;9.90;;;;;;;;;;5082877;28;20176;-81
2023/06/18 04:45:29;;;;;;;11.90;10.37;;;;;;;;;;5062955;28;20173;-81
2023/06/18 04:47:55;;;;;;;13.17;10.47;;;;;;;;;;5082198;28;20178;-81
2023/06/18 04:50:21;;;;;;;13.60;10.63;;;;;;;;;;5064492;28;20273;-81
2023/06/18 04:52:47;;;;;;;12.13;10.53;;;;;;;;;;5081590;28;20183;-81
2023/06/18 04:55:13;;;;;;;13.10;10.80;;;;;;;;;;5080184;28;20261;-81
2023/06/18 04:57:40;;;;;;;13.87;10.83;;;;;;;;;;5084573;28;20186;-81
2023/06/18 05:00:08;;;;;;;11.60;10.40;;;;;;;;;;5083590;28;20210;-81
2023/06/18 05:02:34;;;;;;;12.77;10.67;;;;;;;;;;5085570;28;20170;-82
2023/06/18 05:05:00;;;;;;;14.03;11.17;;;;;;;;;;5083035;28;20218;-81
2023/06/18 05:07:26;;;;;;;12.07;10.90;;;;;;;;;;5084898;28;20178;-82
2023/06/18 05:09:52;;;;;;;13.50;11.40;;;;;;;;;;5062009;28;20215;-78
2023/06/18 05:12:18;;;;;;;11.90;10.63;;;;;;;;;;5080256;28;20183;-78
2023/06/18 05:14:44;;;;;;;14.30;11.57;;;;;;;;;;5083954;28;20273;-78
2023/06/18 05:17:11;;;;;;;13.27;10.70;;;;;;;;;;5065636;28;20186;-78
2023/06/18 05:19:37;;;;;;;14.23;11.57;;;;;;;;;;5084188;28;20197;-78
2023/06/18 05:22:03;;;;;;;11.97;10.73;;;;;;;;;;5052050;28;20243;-78
2023/06/18 05:24:29;;;;;;;14.17;11.67;;;;;;;;;;5047402;28;20237;-78
2023/06/18 05:26:55;;;;;;;14.80;10.93;;;;;;;;;;5052549;28;20180;-78
2023/06/18 05:29:21;;;;;;;13.20;11.80;;;;;;;;;;5046502;28;20187;-78
2023/06/18 05:31:47;;;;;;;12.73;11.40;;;;;;;;;;5047737;28;20176;-78
2023/06/18 05:34:13;;;;;;;15.17;11.70;;;;;;;;;;5053560;28;20278;-78
2023/06/18 05:36:39;;;;;;;12.47;11.17;;;;;;;;;;5062971;28;20196;-78
2023/06/18 05:39:05;;;;;;;14.20;11.77;;;;;;;;;;5062170;28;20187;-78
2023/06/18 05:41:31;;;;;;;16.17;11.87;;;;;;;;;;5066089;28;20203;-78
2023/06/18 05:43:57;;;;;;;12.77;11.47;;;;;;;;;;5047314;28;20175;-78
2023/06/18 05:46:23;;;;;;;15.33;12.10;;;;;;;;;;5047134;28;20196;-78
2023/06/18 05:48:49;;;;;;;13.50;11.60;;;;;;;;;;5045307;28;20192;-78
2023/06/18 05:51:16;;;;;;;14.73;13.13;;;;;;;;;;5048143;28;20176;-78
2023/06/18 05:53:42;;;;;;;13.77;12.30;;;;;;;;;;5064115;28;20175;-79
2023/06/18 05:56:08;;;;;;;13.43;12.13;;;;;;;;;;5050029;28;20278;-79
2023/06/18 05:58:34;;;;;;;14.13;12.67;;;;;;;;;;5051728;28;20180;-79
2023/06/18 06:01:00;;;;;;;14.40;12.90;;;;;;;;;;5047577;28;20208;-78
2023/06/18 06:03:26;;;;;;;14.23;12.73;;;;;;;;;;5047537;28;20175;-79
2023/06/18 06:05:52;;;;;;;14.83;12.67;;;;;;;;;;5050615;28;20270;-78
2023/06/18 06:08:18;;;;;;;14.37;12.87;;;;;;;;;;5075859;28;20179;-78
2023/06/18 06:10:44;;;;;;;15.47;13.20;;;;;;;;;;5082246;28;20186;-78
2023/06/18 06:13:10;;;;;;;15.77;13.80;;;;;;;;;;5081946;28;20191;-79
2023/06/18 06:15:37;;;;;;;15.63;13.30;;;;;;;;;;5083256;28;20193;-79
2023/06/18 06:18:03;;;;;;;16.20;13.93;;;;;;;;;;5084989;28;20178;-79
2023/06/18 06:20:29;;;;;;;16.10;12.87;;;;;;;;;;5054057;28;20223;-79
2023/06/18 06:22:55;;;;;;;15.63;13.23;;;;;;;;;;5079031;28;20214;-78
2023/06/18 06:25:21;;;;;;;16.10;14.00;;;;;;;;;;5072838;28;20175;-79
2023/06/18 06:27:47;;;;;;;16.27;14.43;;;;;;;;;;5067352;28;20176;-79
2023/06/18 06:30:13;;;;;;;16.70;14.43;;;;;;;;;;5052179;28;20199;-76
2023/06/18 06:32:39;;;;;;;16.13;14.47;;;;;;;;;;5042996;28;20199;-76
2023/06/18 06:35:05;;;;;;;17.03;14.53;;;;;;;;;;5055451;28;20183;-76
2023/06/18 06:37:32;;;;;;;16.70;14.90;;;;;;;;;;5070136;28;20194;-76
2023/06/18 06:39:59;;;;;;;16.70;14.97;;;;;;;;;;5072384;28;20207;-76
2023/06/18 06:42:25;;;;;;;18.80;15.77;;;;;;;;;;5064537;28;20219;-76
2023/06/18 06:44:52;;;;;;;18.10;16.10;;;;;;;;;;5052432;28;20175;-76
2023/06/18 06:47:18;;;;;;;18.38;16.42;;;;;;;;;;5052209;28;20183;-77
2023/06/18 06:49:47;;;;;;;18.05;16.05;;;;;;;;;;5052066;28;20176;-80
2023/06/18 06:52:13;;;;;;;18.90;16.90;;;;;;;;;;5048332;28;20190;-80
2023/06/18 06:54:39;;;;;;;19.27;17.27;;;;;;;;;;5053724;28;20279;-79
2023/06/18 06:57:06;;;;;;;18.30;15.97;;;;;;;;;;5054542;28;20187;-79
2023/06/18 06:59:32;;;;;;;18.97;16.17;;;;;;;;;;5071899;28;20179;-80
2023/06/18 07:01:58;;;;;;;20.33;17.00;;;;;;;;;;5052099;28;20188;-79
2023/06/18 07:04:24;;;;;;;24.35;17.20;;;;;;;;;;5051833;28;20217;-79
2023/06/18 07:06:50;;;;;;;17.50;15.70;;;;;;;;;;5056927;28;20270;-79
2023/06/18 07:09:16;;;;;;;22.00;16.65;;;;;;;;;;5055082;28;20195;-80
2023/06/18 07:11:43;;;;;;;20.27;17.13;;;;;;;;;;5052773;28;20191;-79
2023/06/18 07:14:09;;;;;;;18.50;16.40;;;;;;;;;;5070390;28;20195;-79
2023/06/18 07:16:35;;;;;;;19.30;17.40;;;;;;;;;;5059213;28;20317;-79
2023/06/18 07:19:01;;;;;;;19.60;17.60;;;;;;;;;;5058819;28;20187;-79
2023/06/18 07:21:27;;;;;;;19.20;15.82;;;;;;;;;;5070770;28;20292;-79
2023/06/18 07:23:53;;;;;;;19.00;16.58;;;;;;;;;;5063376;28;20188;-80
2023/06/18 07:26:20;;;;;;;19.90;16.55;;;;;;;;;;5056721;28;20176;-79
2023/06/18 07:28:46;;;;;;;19.77;17.73;;;;;;;;;;5057106;28;20179;-80
2023/06/18 07:31:12;;;;;;;19.10;17.20;;;;;;;;;;5058307;28;20256;-82
2023/06/18 07:33:38;;;;;;;18.42;16.63;;;;;;;;;;5074508;28;20183;-79
2023/06/18 07:36:04;;;;;;;20.77;17.33;;;;;;;;;;5074596;28;20179;-80
2023/06/18 07:38:30;;;;;;;30.15;18.58;;;;;;;;;;5075034;28;20305;-79
2023/06/18 07:40:56;;;;;;;19.60;16.33;;;;;;;;;;5075417;28;20312;-79
2023/06/18 07:43:22;;;;;;;21.45;16.92;;;;;;;;;;5044343;28;20251;-75
2023/06/18 07:45:48;;;;;;;20.42;16.13;;;;;;;;;;5055303;28;20172;-75
2023/06/18 07:48:14;;;;;;;18.42;16.58;;;;;;;;;;5055193;28;20267;-75
2023/06/18 07:50:41;;;;;;;20.00;16.83;;;;;;;;;;5055196;28;20188;-75
2023/06/18 07:53:07;;;;;;;20.08;18.00;;;;;;;;;;5091795;28;20245;-76
2023/06/18 07:55:33;;;;;;;19.38;17.17;;;;;;;;;;5058548;28;20183;-75
2023/06/18 07:57:59;;;;;;;19.48;17.45;;;;;;;;;;5075262;28;20179;-75
2023/06/18 08:00:25;;;;;;;19.98;15.20;;;;;;;;;;5074455;28;20215;-75
2023/06/18 08:02:51;;;;;;;17.35;15.50;;;;;;;;;;5074704;28;20187;-75
2023/06/18 08:05:17;;;;;;;17.35;15.57;;;;;;;;;;5058172;28;20274;-75
2023/06/18 08:07:43;;;;;;;16.10;14.48;;;;;;;;;;5058823;28;20185;-75
2023/06/18 08:10:10;;;;;;;16.30;14.57;;;;;;;;;;5058316;28;20183;-75
2023/06/18 08:12:36;;;;;;;13.38;12.02;;;;;;;;;;5058265;28;20210;-75
2023/06/18 08:15:02;;;;;;;12.75;10.60;;;;;;;;;;5074563;28;20186;-75
2023/06/18 08:17:28;;;;;;;11.48;10.38;;;;;;;;;;5073732;28;20183;-75
2023/06/18 08:19:54;;;;;;;14.38;10.98;;;;;;;;;;5074435;28;20230;-75
2023/06/18 08:22:20;;;;;;;14.20;10.88;;;;;;;;;;5074577;28;20269;-75
2023/06/18 08:24:46;;;;;;;15.80;10.68;;;;;;;;;;5075004;28;20172;-75
2023/06/18 08:27:12;;;;;;;12.88;11.40;;;;;;;;;;5058204;28;20233;-75
2023/06/18 08:29:38;;;;;;;12.50;10.95;;;;;;;;;;5057871;28;20172;-75
2023/06/18 08:32:04;;;;;;;13.60;11.27;;;;;;;;;;5057721;28;20274;-75
2023/06/18 08:34:42;;;;;;;12.88;11.63;;;;;;;;;;5057966;28;20229;-75
2023/06/18 08:37:08;;;;;;;13.07;10.82;;;;;;;;;;5073526;28;20269;-76
2023/06/18 08:39:34;;;;;;;12.10;10.85;;;;;;;;;;5074077;28;20175;-75
2023/06/18 08:42:00;;;;;;;14.45;10.57;;;;;;;;;;5074296;28;20180;-75
2023/06/18 08:44:27;;;;;;;13.15;9.98;;;;;;;;;;5073194;28;20320;-75
2023/06/18 08:47:00;;;;;;;11.35;9.70;;;;;;;;;;5041617;28;20180;-75
2023/06/18 08:49:29;;;;;;;10.38;9.38;;;;;;;;;;5090706;28;20258;-75
2023/06/18 08:51:56;;;;;;;11.82;10.55;;;;;;;;;;5075039;28;20171;-75
2023/06/18 08:54:23;;;;;;;12.77;10.07;;;;;;;;;;5074091;28;20179;-75
2023/06/18 08:56:51;;;;;;;11.35;10.20;;;;;;;;;;5073669;28;20182;-76
2023/06/18 08:59:19;;;;;;;13.68;9.93;;;;;;;;;;5073802;28;20186;-76
2023/06/18 09:01:46;;;;;;;10.85;9.77;;;;;;;;;;5078147;28;20218;-76
2023/06/18 09:04:12;;;;;;;10.60;9.50;;;;;;;;;;5065877;28;20179;-77
2023/06/18 09:06:39;;;;;;;10.93;9.82;;;;;;;;;;5073670;28;20175;-76
2023/06/18 09:09:05;;;;;;;9.70;8.68;;;;;;;;;;5072465;28;20182;-77
2023/06/18 09:11:33;;;;;;;10.90;8.95;;;;;;;;;;5040527;28;20191;-76
2023/06/18 09:13:59;;;;;;;9.45;8.60;;;;;;;;;;5053885;28;20180;-76
2023/06/18 09:16:25;;;;;;;11.13;9.23;;;;;;;;;;5053601;28;20201;-76
2023/06/18 09:18:52;;;;;;;11.35;9.35;;;;;;;;;;5037141;28;20210;-76
2023/06/18 09:21:50;;;;;;;10.45;9.25;;;;;;;;;;5053167;28;20259;-76
2023/06/18 09:24:18;;;;;;;11.07;9.98;;;;;;;;;;5035753;28;20219;-76
2023/06/18 09:26:44;;;;;;;11.18;9.73;;;;;;;;;;5067590;28;20203;-76
2023/06/18 09:29:10;;;;;;;12.43;9.25;;;;;;;;;;5052734;28;20168;-76
2023/06/18 09:31:38;;;;;;;12.23;9.90;;;;;;;;;;5069956;28;20183;-76
2023/06/18 09:34:17;;;;;;;11.68;10.57;;;;;;;;;;5061062;28;20182;-76
2023/06/18 09:36:44;;;;;;;10.27;9.27;;;;;;;;;;5053215;28;20278;-76
2023/06/18 09:39:14;;;;;;;16.10;9.35;;;;;;;;;;5053648;28;20168;-76
2023/06/18 09:41:41;;;;;;;11.45;10.18;;;;;;;;;;5036684;28;20216;-76
2023/06/18 09:44:08;;;;;;;10.32;8.10;;;;;;;;;;5049885;28;20247;-76
2023/06/18 09:46:34;;;;;;;9.88;8.55;;;;;;;;;;5053120;28;20194;-76
2023/06/18 09:49:00;;;;;;;11.15;8.00;;;;;;;;;;5052963;28;20223;-77
2023/06/18 09:51:26;;;;;;;14.88;9.73;;;;;;;;;;5053268;28;20188;-76
2023/06/18 09:54:00;;;;;;;9.38;8.38;;;;;;;;;;5072864;28;20178;-81
2023/06/18 09:56:26;;;;;;;10.38;8.88;;;;;;;;;;5067744;28;20184;-76
2023/06/18 09:58:52;;;;;;;10.43;9.18;;;;;;;;;;5046432;28;20430;-76
2023/06/18 10:01:19;;;;;;;9.57;8.57;;;;;;;;;;5070538;28;20207;-77
2023/06/18 10:03:46;;;;;;;9.50;8.60;;;;;;;;;;5072346;28;20175;-78
2023/06/18 10:06:12;;;;;;;10.23;9.15;;;;;;;;;;5054628;28;20184;-81
2023/06/18 10:08:40;;;;;;;9.25;8.35;;;;;;;;;;5054141;28;20256;-81
2023/06/18 10:11:08;;;;;;;9.65;8.18;;;;;;;;;;5052467;28;20176;-81
2023/06/18 10:13:35;;;;;;;9.10;7.80;;;;;;;;;;5063279;28;20179;-81
2023/06/18 10:16:02;;;;;;;11.00;7.82;;;;;;;;;;5054287;28;20199;-82
2023/06/18 10:18:28;;;;;;;9.57;8.55;;;;;;;;;;5084839;28;20209;-82
2023/06/18 10:20:55;;;;;;;9.45;7.65;;;;;;;;;;5072581;28;20311;-81
2023/06/18 10:23:23;;;;;;;10.27;8.90;;;;;;;;;;5072627;28;20175;-82
2023/06/18 10:25:49;;;;;;;9.65;8.65;;;;;;;;;;5072733;28;20176;-81
2023/06/18 10:28:15;;;;;;;9.52;8.55;;;;;;;;;;5072522;28;20175;-81
2023/06/18 10:30:41;;;;;;;10.32;8.02;;;;;;;;;;5056129;28;20186;-82
2023/06/18 10:33:07;;;;;;;9.45;7.90;;;;;;;;;;5056390;28;20183;-81
2023/06/18 10:35:34;;;;;;;8.27;7.25;;;;;;;;;;5072580;28;20186;-82
2023/06/18 10:38:00;;;;;;;7.28;6.50;;;;;;;;;;5056227;28;20179;-81
2023/06/18 10:40:26;;;;;;;7.72;6.88;;;;;;;;;;5063611;28;20239;-82
2023/06/18 10:43:02;;;;;;;13.05;7.10;;;;;;;;;;5080426;28;20238;-81
2023/06/18 10:45:28;;;;;;;7.80;6.97;;;;;;;;;;5080561;28;20185;-81
2023/06/18 10:48:13;;;;;;;8.15;6.70;;;;;;;;;;5076661;28;20170;-81
2023/06/18 10:50:39;;;;;;;8.50;7.70;;;;;;;;;;5096797;28;20179;-81
2023/06/18 10:53:24;;;;;;;7.50;6.53;;;;;;;;;;5096894;28;20204;-81
2023/06/18 10:55:59;;;;;;;8.20;7.00;;;;;;;;;;5097315;28;20205;-81
2023/06/18 10:58:37;;;;;;;7.03;6.40;;;;;;;;;;5096558;28;20205;-81
2023/06/18 11:01:03;;;;;;;8.45;7.65;;;;;;;;;;5096208;28;20293;-81
2023/06/18 11:03:33;;;;;;;8.18;6.82;;;;;;;;;;5096915;28;20224;-82
2023/06/18 11:06:01;;;;;;;7.78;6.82;;;;;;;;;;5096345;28;20177;-82
2023/06/18 11:08:29;;;;;;;8.27;7.22;;;;;;;;;;5096577;28;20181;-83
2023/06/18 11:11:03;;;;;;;8.55;7.68;;;;;;;;;;5096531;28;20182;-83
2023/06/18 11:13:32;;;;;;;8.63;7.50;;;;;;;;;;5096501;28;20233;-83
2023/06/18 11:16:18;;;;;;;12.15;7.15;;;;;;;;;;5074865;28;20188;-83
2023/06/18 11:18:44;;;;;;;14.57;7.63;;;;;;;;;;5055935;28;20180;-82
2023/06/18 11:21:18;;;;;;;8.30;6.90;;;;;;;;;;5055943;28;20228;-81
2023/06/18 11:23:44;;;;;;;9.27;6.93;;;;;;;;;;5055808;28;20207;-81
2023/06/18 11:26:17;;;;;;;10.07;7.50;;;;;;;;;;5055872;28;20168;-81
2023/06/18 11:28:43;;;;;;;8.52;7.72;;;;;;;;;;5056894;28;20171;-80
2023/06/18 11:31:10;;;;;;;8.85;7.35;;;;;;;;;;5055822;28;20179;-80
2023/06/18 11:33:36;;;;;;;8.18;7.38;;;;;;;;;;5058395;28;20195;-82
2023/06/18 11:36:12;;;;;;;10.23;8.30;;;;;;;;;;5066790;28;20195;-81
2023/06/18 11:38:40;;;;;;;9.95;7.93;;;;;;;;;;5089536;28;20180;-81
2023/06/18 11:41:06;;;;;;;8.73;7.95;;;;;;;;;;5039441;28;20218;-80
2023/06/18 11:43:51;;;;;;;9.82;7.60;;;;;;;;;;5055781;28;20267;-80
2023/06/18 11:46:28;;;;;;;12.27;7.75;;;;;;;;;;5048720;28;20167;-81
2023/06/18 11:48:55;;;;;;;10.60;8.10;;;;;;;;;;5074633;28;20178;-81
2023/06/18 11:51:21;;;;;;;9.20;7.82;;;;;;;;;;5073694;28;20229;-81
2023/06/18 11:53:48;;;;;;;9.48;8.02;;;;;;;;;;5066214;28;20175;-82
2023/06/18 11:56:14;;;;;;;12.65;7.78;;;;;;;;;;5058826;28;20179;-80
2023/06/18 11:58:40;;;;;;;7.57;6.88;;;;;;;;;;5069854;28;20245;-82
2023/06/18 12:01:06;;;;;;;8.55;7.13;;;;;;;;;;5056917;28;20262;-81
2023/06/18 12:03:35;;;;;;;8.00;7.20;;;;;;;;;;5069485;28;20179;-81
2023/06/18 12:06:11;;;;;;;11.73;7.75;;;;;;;;;;5075231;28;20183;-81
2023/06/18 12:08:42;;;;;;;10.15;7.95;;;;;;;;;;5059755;28;20193;-82
2023/06/18 12:11:13;;;;;;;8.93;8.02;;;;;;;;;;5068714;28;20191;-82
2023/06/18 12:13:41;;;;;;;10.93;8.65;;;;;;;;;;5075974;28;20211;-81
2023/06/18 12:16:12;;;;;;;10.15;8.30;;;;;;;;;;5075068;28;20179;-82
2023/06/18 12:18:39;;;;;;;11.75;8.70;;;;;;;;;;5074995;28;20191;-81
2023/06/18 12:21:06;;;;;;;9.75;7.90;;;;;;;;;;5076241;28;20312;-81
2023/06/18 12:23:32;;;;;;;8.80;7.70;;;;;;;;;;5073201;28;20186;-81
2023/06/18 12:25:58;;;;;;;10.93;8.02;;;;;;;;;;5076537;28;20178;-80
2023/06/18 12:28:25;;;;;;;7.90;7.15;;;;;;;;;;5041838;28;20179;-80
2023/06/18 12:30:54;;;;;;;7.97;7.18;;;;;;;;;;5074370;28;20190;-81
2023/06/18 12:33:20;;;;;;;8.85;7.53;;;;;;;;;;5073986;28;20456;-80
2023/06/18 12:35:48;;;;;;;8.23;7.43;;;;;;;;;;5057705;28;20417;-80
2023/06/18 12:38:14;;;;;;;8.05;6.75;;;;;;;;;;5057687;28;20250;-80
2023/06/18 12:40:47;;;;;;;8.20;7.45;;;;;;;;;;5072065;28;20302;-81
2023/06/18 12:43:16;;;;;;;10.30;7.17;;;;;;;;;;5072946;28;20470;-80
2023/06/18 12:45:42;;;;;;;9.98;7.20;;;;;;;;;;5057805;28;20175;-81
2023/06/18 12:48:13;;;;;;;7.28;6.50;;;;;;;;;;5073877;28;20163;-80
2023/06/18 12:50:39;;;;;;;7.22;6.35;;;;;;;;;;5075112;28;20168;-80
2023/06/18 12:53:16;;;;;;;7.50;6.85;;;;;;;;;;5056757;28;20274;-80
2023/06/18 12:55:44;;;;;;;9.35;7.00;;;;;;;;;;5054208;28;20176;-80
2023/06/18 12:58:17;;;;;;;8.18;6.43;;;;;;;;;;5037829;28;20186;-76
2023/06/18 13:00:43;;;;;;;11.52;6.60;;;;;;;;;;5053836;28;20220;-76
2023/06/18 13:03:09;;;;;;;10.25;6.60;;;;;;;;;;5071543;28;20186;-76
2023/06/18 13:05:35;;;;;;;9.05;6.60;;;;;;;;;;5056792;28;20210;-76
2023/06/18 13:08:02;;;;;;;10.90;6.47;;;;;;;;;;5057784;28;20228;-76
2023/06/18 13:10:28;;;;;;;7.05;6.28;;;;;;;;;;5068649;28;20251;-76
2023/06/18 13:12:54;;;;;;;9.82;6.60;;;;;;;;;;5072357;28;20183;-76
2023/06/18 13:15:21;;;;;;;7.80;6.90;;;;;;;;;;5052998;28;20198;-77
2023/06/18 13:17:47;;;;;;;9.93;6.93;;;;;;;;;;5063492;28;20175;-76
2023/06/18 13:20:13;;;;;;;8.18;6.40;;;;;;;;;;5060003;28;20200;-76
2023/06/18 13:22:39;;;;;;;6.80;6.07;;;;;;;;;;5049114;28;20223;-76
2023/06/18 13:25:05;;;;;;;6.82;6.05;;;;;;;;;;5072567;28;20179;-80
2023/06/18 13:27:32;;;;;;;9.23;6.90;;;;;;;;;;5059399;28;20187;-80
2023/06/18 13:29:58;;;;;;;8.18;6.65;;;;;;;;;;5071240;28;20171;-80
2023/06/18 13:32:24;;;;;;;8.75;6.65;;;;;;;;;;5065802;28;20180;-80
2023/06/18 13:34:51;;;;;;;7.63;6.60;;;;;;;;;;5053392;28;20186;-80
2023/06/18 13:37:17;;;;;;;9.38;6.93;;;;;;;;;;5052885;28;20214;-80
2023/06/18 13:39:45;;;;;;;8.57;6.53;;;;;;;;;;5064556;28;20178;-81
2023/06/18 13:42:11;;;;;;;8.30;6.25;;;;;;;;;;5039202;28;20195;-81
2023/06/18 13:44:37;;;;;;;7.28;6.13;;;;;;;;;;5066623;28;20193;-81
2023/06/18 13:47:04;;;;;;;7.22;6.28;;;;;;;;;;5062782;28;20184;-81
2023/06/18 13:49:30;;;;;;;6.68;5.82;;;;;;;;;;5065887;28;20175;-81
2023/06/18 13:51:58;;;;;;;7.70;6.32;;;;;;;;;;5052044;28;20191;-81
2023/06/18 13:54:24;;;;;;;7.07;6.10;;;;;;;;;;5059213;28;20213;-80
2023/06/18 13:56:50;;;;;;;8.18;6.25;;;;;;;;;;5072077;28;20190;-81
2023/06/18 13:59:16;;;;;;;7.05;5.82;;;;;;;;;;5064278;28;20252;-78
2023/06/18 14:01:42;;;;;;;9.18;6.15;;;;;;;;;;5062786;28;20216;-81
2023/06/18 14:04:09;;;;;;;6.32;5.75;;;;;;;;;;5052650;28;20183;-83
2023/06/18 14:06:35;;;;;;;7.32;6.18;;;;;;;;;;5055368;28;20214;-81
2023/06/18 14:09:01;;;;;;;8.65;6.25;;;;;;;;;;5055854;28;20183;-78
2023/06/18 14:11:27;;;;;;;7.22;6.30;;;;;;;;;;5055558;28;20179;-78
2023/06/18 14:13:54;;;;;;;6.80;6.20;;;;;;;;;;5047737;28;20198;-79
2023/06/18 14:16:20;;;;;;;8.48;6.20;;;;;;;;;;5064253;28;20189;-79
2023/06/18 14:18:48;;;;;;;7.15;6.35;;;;;;;;;;5064371;28;20184;-79
2023/06/18 14:21:14;;;;;;;8.07;6.30;;;;;;;;;;5085908;28;20281;-79
2023/06/18 14:23:43;;;;;;;6.72;6.13;;;;;;;;;;5086211;28;20180;-79
2023/06/18 14:26:09;;;;;;;8.32;6.15;;;;;;;;;;5073043;28;20242;-80
2023/06/18 14:28:35;;;;;;;8.98;6.63;;;;;;;;;;5057562;28;20171;-80
2023/06/18 14:31:02;;;;;;;7.68;6.47;;;;;;;;;;5055871;28;20229;-80